sensor_id;sensor_type;location;lat;lon;timestamp;temperature;humidity
14735;DHT22;7458;49.002;8.472;2023-04-20T00:00:03;7.40;99.90
14735;DHT22;7458;49.002;8.472;2023-04-20T00:02:37;6.90;99.90
14735;DHT22;7458;49.002;8.472;2023-04-20T00:05:06;6.70;99.90
14735;DHT22;7458;49.002;8.472;2023-04-20T00:07:32;6.90;99.90
14735;DHT22;7458;49.002;8.472;2023-04-20T00:10:00;6.50;99.90
14735;DHT22;7458;49.002;8.472;2023-04-20T00:12:26;6.70;99.90
14735;DHT22;7458;49.002;8.472;2023-04-20T00:17:18;6.70;99.90
14735;DHT22;7458;49.002;8.472;2023-04-20T00:19:44;7.20;99.90
14735;DHT22;7458;49.002;8.472;2023-04-20T00:24:36;7.40;99.90
14735;DHT22;7458;49.002;8.472;2023-04-20T00:27:02;6.80;99.90
14735;DHT22;7458;49.002;8.472;2023-04-20T00:29:28;7.30;99.90
14735;DHT22;7458;49.002;8.472;2023-04-20T00:31:54;6.50;99.90
14735;DHT22;7458;49.002;8.472;2023-04-20T00:34:20;6.40;99.90
14735;DHT22;7458;49.002;8.472;2023-04-20T00:36:45;6.70;99.90
14735;DHT22;7458;49.002;8.472;2023-04-20T00:39:11;6.80;99.90
14735;DHT22;7458;49.002;8.472;2023-04-20T00:48:59;6.50;99.90
14735;DHT22;7458;49.002;8.472;2023-04-20T00:51:26;6.50;99.90
14735;DHT22;7458;49.002;8.472;2023-04-20T00:53:53;6.30;99.90
14735;DHT22;7458;49.002;8.472;2023-04-20T00:56:19;6.30;99.90
14735;DHT22;7458;49.002;8.472;2023-04-20T00:58:45;6.40;99.90
14735;DHT22;7458;49.002;8.472;2023-04-20T01:01:12;6.60;99.90
14735;DHT22;7458;49.002;8.472;2023-04-20T01:03:42;6.60;99.90
14735;DHT22;7458;49.002;8.472;2023-04-20T01:06:09;5.90;99.90
14735;DHT22;7458;49.002;8.472;2023-04-20T01:08:47;6.90;99.90
14735;DHT22;7458;49.002;8.472;2023-04-20T01:11:14;6.50;99.90
14735;DHT22;7458;49.002;8.472;2023-04-20T01:13:40;6.30;99.90
14735;DHT22;7458;49.002;8.472;2023-04-20T01:16:07;6.60;99.90
14735;DHT22;7458;49.002;8.472;2023-04-20T01:18:46;5.70;99.90
14735;DHT22;7458;49.002;8.472;2023-04-20T01:21:16;5.70;99.90
14735;DHT22;7458;49.002;8.472;2023-04-20T01:23:43;6.10;99.90
14735;DHT22;7458;49.002;8.472;2023-04-20T01:26:12;5.80;99.90
14735;DHT22;7458;49.002;8.472;2023-04-20T01:28:40;6.00;99.90
14735;DHT22;7458;49.002;8.472;2023-04-20T01:31:06;5.70;99.90
14735;DHT22;7458;49.002;8.472;2023-04-20T01:33:33;6.20;99.90
14735;DHT22;7458;49.002;8.472;2023-04-20T01:38:26;5.70;99.90
14735;DHT22;7458;49.002;8.472;2023-04-20T01:40:53;6.00;99.90
14735;DHT22;7458;49.002;8.472;2023-04-20T01:43:20;5.60;99.90
14735;DHT22;7458;49.002;8.472;2023-04-20T01:45:46;5.50;99.90
14735;DHT22;7458;49.002;8.472;2023-04-20T01:50:38;6.00;99.90
14735;DHT22;7458;49.002;8.472;2023-04-20T01:53:04;5.40;99.90
14735;DHT22;7458;49.002;8.472;2023-04-20T02:00:23;5.70;99.90
14735;DHT22;7458;49.002;8.472;2023-04-20T02:10:08;5.70;99.90
14735;DHT22;7458;49.002;8.472;2023-04-20T02:12:34;5.40;99.90
14735;DHT22;7458;49.002;8.472;2023-04-20T02:17:27;5.70;99.90
14735;DHT22;7458;49.002;8.472;2023-04-20T02:19:52;6.30;99.90
14735;DHT22;7458;49.002;8.472;2023-04-20T02:22:18;5.50;99.90
14735;DHT22;7458;49.002;8.472;2023-04-20T02:27:10;5.20;99.90
14735;DHT22;7458;49.002;8.472;2023-04-20T02:29:36;5.50;99.90
14735;DHT22;7458;49.002;8.472;2023-04-20T02:39:20;5.20;99.90
14735;DHT22;7458;49.002;8.472;2023-04-20T02:41:45;5.20;99.90
14735;DHT22;7458;49.002;8.472;2023-04-20T02:44:11;4.90;99.90
14735;DHT22;7458;49.002;8.472;2023-04-20T02:46:37;5.80;99.90
14735;DHT22;7458;49.002;8.472;2023-04-20T02:49:03;5.20;99.90
14735;DHT22;7458;49.002;8.472;2023-04-20T02:51:28;5.30;99.90
14735;DHT22;7458;49.002;8.472;2023-04-20T02:53:54;4.80;99.90
14735;DHT22;7458;49.002;8.472;2023-04-20T02:56:20;4.70;99.90
14735;DHT22;7458;49.002;8.472;2023-04-20T02:58:46;4.60;99.90
14735;DHT22;7458;49.002;8.472;2023-04-20T03:03:42;4.70;99.90
14735;DHT22;7458;49.002;8.472;2023-04-20T03:06:08;4.70;99.90
14735;DHT22;7458;49.002;8.472;2023-04-20T03:08:34;4.70;99.90
14735;DHT22;7458;49.002;8.472;2023-04-20T03:13:26;4.60;99.90
14735;DHT22;7458;49.002;8.472;2023-04-20T03:15:51;4.60;99.90
14735;DHT22;7458;49.002;8.472;2023-04-20T03:18:17;4.70;99.90
14735;DHT22;7458;49.002;8.472;2023-04-20T03:20:43;4.80;99.90
14735;DHT22;7458;49.002;8.472;2023-04-20T03:23:09;5.00;99.90
14735;DHT22;7458;49.002;8.472;2023-04-20T03:30:27;4.60;99.90
14735;DHT22;7458;49.002;8.472;2023-04-20T03:47:31;4.10;99.90
14735;DHT22;7458;49.002;8.472;2023-04-20T03:49:57;4.40;99.90
14735;DHT22;7458;49.002;8.472;2023-04-20T03:54:49;3.70;99.90
14735;DHT22;7458;49.002;8.472;2023-04-20T03:57:15;4.50;99.90
14735;DHT22;7458;49.002;8.472;2023-04-20T03:59:41;4.40;99.90
14735;DHT22;7458;49.002;8.472;2023-04-20T04:02:07;3.90;99.90
14735;DHT22;7458;49.002;8.472;2023-04-20T04:04:35;4.20;99.90
14735;DHT22;7458;49.002;8.472;2023-04-20T04:09:27;4.00;99.90
14735;DHT22;7458;49.002;8.472;2023-04-20T04:14:18;3.40;99.90
14735;DHT22;7458;49.002;8.472;2023-04-20T04:16:44;4.10;99.90
14735;DHT22;7458;49.002;8.472;2023-04-20T04:21:36;4.20;99.90
14735;DHT22;7458;49.002;8.472;2023-04-20T04:28:56;3.90;99.90
14735;DHT22;7458;49.002;8.472;2023-04-20T04:31:22;3.90;99.90
14735;DHT22;7458;49.002;8.472;2023-04-20T04:33:48;4.30;99.90
14735;DHT22;7458;49.002;8.472;2023-04-20T04:38:41;3.00;99.90
14735;DHT22;7458;49.002;8.472;2023-04-20T04:41:10;3.70;99.90
14735;DHT22;7458;49.002;8.472;2023-04-20T04:43:38;4.00;99.90
14735;DHT22;7458;49.002;8.472;2023-04-20T04:46:10;3.80;99.90
14735;DHT22;7458;49.002;8.472;2023-04-20T04:48:39;3.90;99.90
14735;DHT22;7458;49.002;8.472;2023-04-20T04:51:07;4.00;99.90
14735;DHT22;7458;49.002;8.472;2023-04-20T04:53:34;4.00;99.90
14735;DHT22;7458;49.002;8.472;2023-04-20T04:58:26;4.10;99.90
14735;DHT22;7458;49.002;8.472;2023-04-20T05:00:52;4.00;99.90
14735;DHT22;7458;49.002;8.472;2023-04-20T05:05:44;4.20;99.90
14735;DHT22;7458;49.002;8.472;2023-04-20T05:08:10;4.20;99.90
14735;DHT22;7458;49.002;8.472;2023-04-20T05:13:02;3.80;99.90
14735;DHT22;7458;49.002;8.472;2023-04-20T05:15:28;4.50;99.90
14735;DHT22;7458;49.002;8.472;2023-04-20T05:17:54;4.60;99.90
14735;DHT22;7458;49.002;8.472;2023-04-20T05:20:20;4.80;99.90
14735;DHT22;7458;49.002;8.472;2023-04-20T05:22:46;4.80;99.90
14735;DHT22;7458;49.002;8.472;2023-04-20T05:27:38;4.80;99.90
14735;DHT22;7458;49.002;8.472;2023-04-20T05:30:04;5.20;99.90
14735;DHT22;7458;49.002;8.472;2023-04-20T05:32:30;5.10;99.90
14735;DHT22;7458;49.002;8.472;2023-04-20T05:34:56;5.30;99.90
14735;DHT22;7458;49.002;8.472;2023-04-20T05:37:22;4.90;99.90
14735;DHT22;7458;49.002;8.472;2023-04-20T05:42:14;5.30;99.90
14735;DHT22;7458;49.002;8.472;2023-04-20T05:44:40;5.40;99.90
14735;DHT22;7458;49.002;8.472;2023-04-20T05:47:08;5.90;99.90
14735;DHT22;7458;49.002;8.472;2023-04-20T05:49:34;5.60;99.90
14735;DHT22;7458;49.002;8.472;2023-04-20T05:52:00;5.60;99.90
14735;DHT22;7458;49.002;8.472;2023-04-20T05:54:26;5.60;99.90
14735;DHT22;7458;49.002;8.472;2023-04-20T05:56:53;5.30;99.90
14735;DHT22;7458;49.002;8.472;2023-04-20T05:59:20;5.90;99.90
14735;DHT22;7458;49.002;8.472;2023-04-20T06:01:46;5.70;99.90
14735;DHT22;7458;49.002;8.472;2023-04-20T06:11:30;6.20;99.90
14735;DHT22;7458;49.002;8.472;2023-04-20T06:13:57;6.40;99.90
14735;DHT22;7458;49.002;8.472;2023-04-20T06:16:22;6.70;99.90
14735;DHT22;7458;49.002;8.472;2023-04-20T06:18:48;6.70;99.90
14735;DHT22;7458;49.002;8.472;2023-04-20T06:21:14;7.70;99.90
14735;DHT22;7458;49.002;8.472;2023-04-20T06:23:42;8.30;99.90
14735;DHT22;7458;49.002;8.472;2023-04-20T06:26:09;8.00;99.90
14735;DHT22;7458;49.002;8.472;2023-04-20T06:28:36;10.80;99.90
14735;DHT22;7458;49.002;8.472;2023-04-20T06:31:06;14.50;99.90
14735;DHT22;7458;49.002;8.472;2023-04-20T06:33:32;14.70;91.30
14735;DHT22;7458;49.002;8.472;2023-04-20T06:35:57;16.00;81.10
14735;DHT22;7458;49.002;8.472;2023-04-20T06:40:52;18.80;66.40
14735;DHT22;7458;49.002;8.472;2023-04-20T06:43:18;19.60;68.30
14735;DHT22;7458;49.002;8.472;2023-04-20T06:45:44;20.30;56.00
14735;DHT22;7458;49.002;8.472;2023-04-20T06:48:10;20.70;51.10
14735;DHT22;7458;49.002;8.472;2023-04-20T06:50:35;21.10;50.00
14735;DHT22;7458;49.002;8.472;2023-04-20T06:53:02;20.90;48.00
14735;DHT22;7458;49.002;8.472;2023-04-20T06:55:28;21.00;46.90
14735;DHT22;7458;49.002;8.472;2023-04-20T06:57:54;21.10;48.40
14735;DHT22;7458;49.002;8.472;2023-04-20T07:00:20;19.10;63.70
14735;DHT22;7458;49.002;8.472;2023-04-20T07:02:49;18.30;64.70
14735;DHT22;7458;49.002;8.472;2023-04-20T07:05:16;17.30;66.80
14735;DHT22;7458;49.002;8.472;2023-04-20T07:07:43;17.30;54.10
14735;DHT22;7458;49.002;8.472;2023-04-20T07:10:11;16.80;68.40
14735;DHT22;7458;49.002;8.472;2023-04-20T07:12:39;16.30;66.60
14735;DHT22;7458;49.002;8.472;2023-04-20T07:15:06;16.80;70.30
14735;DHT22;7458;49.002;8.472;2023-04-20T07:17:33;16.00;68.50
14735;DHT22;7458;49.002;8.472;2023-04-20T07:19:59;16.20;69.00
14735;DHT22;7458;49.002;8.472;2023-04-20T07:22:36;16.20;68.20
14735;DHT22;7458;49.002;8.472;2023-04-20T07:25:04;15.10;69.30
14735;DHT22;7458;49.002;8.472;2023-04-20T07:27:36;15.70;57.90
14735;DHT22;7458;49.002;8.472;2023-04-20T07:32:32;15.30;63.30
14735;DHT22;7458;49.002;8.472;2023-04-20T07:34:58;15.80;74.60
14735;DHT22;7458;49.002;8.472;2023-04-20T07:42:21;14.70;74.60
14735;DHT22;7458;49.002;8.472;2023-04-20T07:44:47;14.50;76.40
14735;DHT22;7458;49.002;8.472;2023-04-20T07:47:13;14.10;78.30
14735;DHT22;7458;49.002;8.472;2023-04-20T07:49:40;14.90;78.60
14735;DHT22;7458;49.002;8.472;2023-04-20T07:52:07;14.70;79.10
14735;DHT22;7458;49.002;8.472;2023-04-20T07:54:33;13.80;78.70
14735;DHT22;7458;49.002;8.472;2023-04-20T07:57:00;14.50;81.40
14735;DHT22;7458;49.002;8.472;2023-04-20T07:59:28;14.60;79.40
14735;DHT22;7458;49.002;8.472;2023-04-20T08:02:01;14.60;78.10
14735;DHT22;7458;49.002;8.472;2023-04-20T08:04:28;14.70;79.50
14735;DHT22;7458;49.002;8.472;2023-04-20T08:06:54;14.50;77.80
14735;DHT22;7458;49.002;8.472;2023-04-20T08:09:20;15.00;80.90
14735;DHT22;7458;49.002;8.472;2023-04-20T08:14:13;15.10;78.90
14735;DHT22;7458;49.002;8.472;2023-04-20T08:16:40;15.60;64.70
14735;DHT22;7458;49.002;8.472;2023-04-20T08:19:06;15.90;63.30
14735;DHT22;7458;49.002;8.472;2023-04-20T08:21:36;16.10;62.80
14735;DHT22;7458;49.002;8.472;2023-04-20T08:24:03;16.50;78.40
14735;DHT22;7458;49.002;8.472;2023-04-20T08:26:30;16.80;61.80
14735;DHT22;7458;49.002;8.472;2023-04-20T08:28:56;16.80;60.20
14735;DHT22;7458;49.002;8.472;2023-04-20T08:31:22;17.10;60.80
14735;DHT22;7458;49.002;8.472;2023-04-20T08:33:48;17.50;68.80
14735;DHT22;7458;49.002;8.472;2023-04-20T08:36:14;17.50;66.30
14735;DHT22;7458;49.002;8.472;2023-04-20T08:38:40;17.60;66.40
14735;DHT22;7458;49.002;8.472;2023-04-20T08:41:06;17.80;65.90
14735;DHT22;7458;49.002;8.472;2023-04-20T08:43:32;17.80;64.90
14735;DHT22;7458;49.002;8.472;2023-04-20T08:45:59;17.80;64.10
14735;DHT22;7458;49.002;8.472;2023-04-20T08:48:34;17.50;64.70
14735;DHT22;7458;49.002;8.472;2023-04-20T08:51:01;17.60;65.90
14735;DHT22;7458;49.002;8.472;2023-04-20T08:53:29;17.90;72.00
14735;DHT22;7458;49.002;8.472;2023-04-20T08:55:55;17.70;71.80
14735;DHT22;7458;49.002;8.472;2023-04-20T08:58:30;17.60;69.20
14735;DHT22;7458;49.002;8.472;2023-04-20T09:00:57;17.70;71.70
14735;DHT22;7458;49.002;8.472;2023-04-20T09:03:41;17.70;71.10
14735;DHT22;7458;49.002;8.472;2023-04-20T09:06:17;18.10;70.50
14735;DHT22;7458;49.002;8.472;2023-04-20T09:08:44;17.80;70.40
14735;DHT22;7458;49.002;8.472;2023-04-20T09:11:27;17.90;72.50
14735;DHT22;7458;49.002;8.472;2023-04-20T09:13:58;17.80;72.70
14735;DHT22;7458;49.002;8.472;2023-04-20T09:16:26;17.90;72.30
14735;DHT22;7458;49.002;8.472;2023-04-20T09:18:53;18.30;71.50
14735;DHT22;7458;49.002;8.472;2023-04-20T09:21:22;18.10;78.00
14735;DHT22;7458;49.002;8.472;2023-04-20T09:23:58;17.50;61.00
14735;DHT22;7458;49.002;8.472;2023-04-20T09:26:31;17.00;61.80
14735;DHT22;7458;49.002;8.472;2023-04-20T09:28:58;16.70;67.20
14735;DHT22;7458;49.002;8.472;2023-04-20T09:31:25;16.00;61.00
14735;DHT22;7458;49.002;8.472;2023-04-20T09:34:01;15.70;62.20
14735;DHT22;7458;49.002;8.472;2023-04-20T09:39:07;15.10;64.80
14735;DHT22;7458;49.002;8.472;2023-04-20T09:41:37;14.90;66.10
14735;DHT22;7458;49.002;8.472;2023-04-20T09:44:04;15.10;65.60
14735;DHT22;7458;49.002;8.472;2023-04-20T09:46:33;14.90;65.20
14735;DHT22;7458;49.002;8.472;2023-04-20T09:49:03;14.90;66.30
14735;DHT22;7458;49.002;8.472;2023-04-20T09:51:33;14.80;65.60
14735;DHT22;7458;49.002;8.472;2023-04-20T09:54:02;14.60;66.90
14735;DHT22;7458;49.002;8.472;2023-04-20T09:56:30;14.30;67.90
14735;DHT22;7458;49.002;8.472;2023-04-20T09:58:58;14.20;68.00
14735;DHT22;7458;49.002;8.472;2023-04-20T10:01:26;14.30;67.70
14735;DHT22;7458;49.002;8.472;2023-04-20T10:03:56;14.60;65.70
14735;DHT22;7458;49.002;8.472;2023-04-20T10:06:34;14.70;65.40
14735;DHT22;7458;49.002;8.472;2023-04-20T10:09:01;14.60;66.50
14735;DHT22;7458;49.002;8.472;2023-04-20T10:11:34;14.50;68.00
14735;DHT22;7458;49.002;8.472;2023-04-20T10:14:18;14.20;86.10
14735;DHT22;7458;49.002;8.472;2023-04-20T10:17:00;14.40;65.20
14735;DHT22;7458;49.002;8.472;2023-04-20T10:19:42;14.40;66.40
14735;DHT22;7458;49.002;8.472;2023-04-20T10:22:24;14.80;86.30
14735;DHT22;7458;49.002;8.472;2023-04-20T10:27:21;14.20;85.00
14735;DHT22;7458;49.002;8.472;2023-04-20T10:29:47;13.90;83.90
14735;DHT22;7458;49.002;8.472;2023-04-20T10:32:23;13.50;85.50
14735;DHT22;7458;49.002;8.472;2023-04-20T10:35:04;13.70;86.00
14735;DHT22;7458;49.002;8.472;2023-04-20T10:37:32;13.90;86.70
14735;DHT22;7458;49.002;8.472;2023-04-20T10:40:00;13.70;86.20
14735;DHT22;7458;49.002;8.472;2023-04-20T10:42:26;13.70;85.80
14735;DHT22;7458;49.002;8.472;2023-04-20T10:44:54;13.60;78.60
14735;DHT22;7458;49.002;8.472;2023-04-20T10:47:30;13.50;87.80
14735;DHT22;7458;49.002;8.472;2023-04-20T10:52:36;14.30;72.00
14735;DHT22;7458;49.002;8.472;2023-04-20T10:55:05;13.90;88.60
14735;DHT22;7458;49.002;8.472;2023-04-20T10:57:44;13.60;90.00
14735;DHT22;7458;49.002;8.472;2023-04-20T11:00:17;13.50;91.60
14735;DHT22;7458;49.002;8.472;2023-04-20T11:02:53;13.40;91.30
14735;DHT22;7458;49.002;8.472;2023-04-20T11:05:22;13.40;75.30
14735;DHT22;7458;49.002;8.472;2023-04-20T11:07:57;12.90;91.40
14735;DHT22;7458;49.002;8.472;2023-04-20T11:10:37;13.10;91.50
14735;DHT22;7458;49.002;8.472;2023-04-20T11:13:04;13.00;91.90
14735;DHT22;7458;49.002;8.472;2023-04-20T11:15:33;12.30;92.10
14735;DHT22;7458;49.002;8.472;2023-04-20T11:18:10;13.30;92.00
14735;DHT22;7458;49.002;8.472;2023-04-20T11:20:37;13.70;91.90
14735;DHT22;7458;49.002;8.472;2023-04-20T11:23:13;13.60;91.80
14735;DHT22;7458;49.002;8.472;2023-04-20T11:25:57;13.60;91.50
14735;DHT22;7458;49.002;8.472;2023-04-20T11:28:23;13.70;77.70
14735;DHT22;7458;49.002;8.472;2023-04-20T11:30:50;13.30;90.50
14735;DHT22;7458;49.002;8.472;2023-04-20T11:33:26;14.40;90.70
14735;DHT22;7458;49.002;8.472;2023-04-20T11:35:55;13.90;90.60
14735;DHT22;7458;49.002;8.472;2023-04-20T11:38:29;14.50;91.00
14735;DHT22;7458;49.002;8.472;2023-04-20T11:40:57;14.00;88.80
14735;DHT22;7458;49.002;8.472;2023-04-20T11:45:56;13.40;88.20
14735;DHT22;7458;49.002;8.472;2023-04-20T11:48:22;13.60;88.90
14735;DHT22;7458;49.002;8.472;2023-04-20T11:50:48;13.40;80.70
14735;DHT22;7458;49.002;8.472;2023-04-20T11:53:14;13.30;86.00
14735;DHT22;7458;49.002;8.472;2023-04-20T11:55:41;13.40;88.90
14735;DHT22;7458;49.002;8.472;2023-04-20T12:05:27;12.90;90.70
14735;DHT22;7458;49.002;8.472;2023-04-20T12:07:53;12.90;91.50
14735;DHT22;7458;49.002;8.472;2023-04-20T12:12:45;13.00;83.50
14735;DHT22;7458;49.002;8.472;2023-04-20T12:17:37;13.20;91.30
14735;DHT22;7458;49.002;8.472;2023-04-20T12:20:03;13.80;91.00
14735;DHT22;7458;49.002;8.472;2023-04-20T12:22:33;13.00;90.50
14735;DHT22;7458;49.002;8.472;2023-04-20T12:24:59;13.30;90.00
14735;DHT22;7458;49.002;8.472;2023-04-20T12:27:25;13.60;82.60
14735;DHT22;7458;49.002;8.472;2023-04-20T12:29:53;13.30;72.80
14735;DHT22;7458;49.002;8.472;2023-04-20T12:32:20;13.10;90.30
14735;DHT22;7458;49.002;8.472;2023-04-20T12:34:46;13.10;90.30
14735;DHT22;7458;49.002;8.472;2023-04-20T12:37:12;13.10;91.00
14735;DHT22;7458;49.002;8.472;2023-04-20T12:51:49;12.20;91.20
14735;DHT22;7458;49.002;8.472;2023-04-20T12:54:15;12.30;91.40
14735;DHT22;7458;49.002;8.472;2023-04-20T12:56:42;12.20;91.30
14735;DHT22;7458;49.002;8.472;2023-04-20T13:01:33;12.40;91.70
14735;DHT22;7458;49.002;8.472;2023-04-20T13:03:59;12.20;92.00
14735;DHT22;7458;49.002;8.472;2023-04-20T13:11:18;12.30;92.20
14735;DHT22;7458;49.002;8.472;2023-04-20T13:16:10;11.60;92.60
14735;DHT22;7458;49.002;8.472;2023-04-20T13:21:02;11.90;93.50
14735;DHT22;7458;49.002;8.472;2023-04-20T13:35:40;11.80;94.80
14735;DHT22;7458;49.002;8.472;2023-04-20T13:40:33;11.10;95.80
14735;DHT22;7458;49.002;8.472;2023-04-20T13:42:59;10.80;94.30
14735;DHT22;7458;49.002;8.472;2023-04-20T13:47:51;10.90;96.80
14735;DHT22;7458;49.002;8.472;2023-04-20T13:50:17;11.50;93.50
14735;DHT22;7458;49.002;8.472;2023-04-20T13:52:42;11.40;92.90
14735;DHT22;7458;49.002;8.472;2023-04-20T13:55:09;10.80;94.90
14735;DHT22;7458;49.002;8.472;2023-04-20T14:00:01;10.70;94.90
14735;DHT22;7458;49.002;8.472;2023-04-20T14:02:28;10.70;94.30
14735;DHT22;7458;49.002;8.472;2023-04-20T14:04:54;11.30;98.70
14735;DHT22;7458;49.002;8.472;2023-04-20T14:07:20;11.20;98.10
14735;DHT22;7458;49.002;8.472;2023-04-20T14:09:46;11.00;97.90
14735;DHT22;7458;49.002;8.472;2023-04-20T14:12:12;10.90;97.80
14735;DHT22;7458;49.002;8.472;2023-04-20T14:14:39;10.90;98.10
14735;DHT22;7458;49.002;8.472;2023-04-20T14:29:16;11.50;97.50
14735;DHT22;7458;49.002;8.472;2023-04-20T14:31:42;11.10;96.60
14735;DHT22;7458;49.002;8.472;2023-04-20T14:36:34;11.50;94.90
14735;DHT22;7458;49.002;8.472;2023-04-20T14:39:00;10.70;99.90
14735;DHT22;7458;49.002;8.472;2023-04-20T14:48:45;11.40;99.20
14735;DHT22;7458;49.002;8.472;2023-04-20T14:51:13;11.50;94.10
14735;DHT22;7458;49.002;8.472;2023-04-20T14:53:40;11.10;99.00
14735;DHT22;7458;49.002;8.472;2023-04-20T14:56:06;11.50;97.10
14735;DHT22;7458;49.002;8.472;2023-04-20T14:58:32;11.70;99.00
14735;DHT22;7458;49.002;8.472;2023-04-20T15:01:00;11.80;99.10
14735;DHT22;7458;49.002;8.472;2023-04-20T15:03:26;11.20;99.10
14735;DHT22;7458;49.002;8.472;2023-04-20T15:20:30;11.00;97.20
14735;DHT22;7458;49.002;8.472;2023-04-20T15:22:55;11.70;99.30
14735;DHT22;7458;49.002;8.472;2023-04-20T15:30:14;11.30;94.20
14735;DHT22;7458;49.002;8.472;2023-04-20T15:37:32;11.30;97.90
14735;DHT22;7458;49.002;8.472;2023-04-20T15:39:58;11.50;99.90
14735;DHT22;7458;49.002;8.472;2023-04-20T15:42:24;11.20;99.90
14735;DHT22;7458;49.002;8.472;2023-04-20T15:44:51;11.50;98.50
14735;DHT22;7458;49.002;8.472;2023-04-20T15:54:36;11.40;99.90
14735;DHT22;7458;49.002;8.472;2023-04-20T15:57:02;10.70;99.90
14735;DHT22;7458;49.002;8.472;2023-04-20T15:59:29;11.00;98.80
14735;DHT22;7458;49.002;8.472;2023-04-20T16:01:55;10.60;99.90
14735;DHT22;7458;49.002;8.472;2023-04-20T16:04:21;11.10;99.90
14735;DHT22;7458;49.002;8.472;2023-04-20T16:06:47;10.90;99.90
14735;DHT22;7458;49.002;8.472;2023-04-20T16:11:40;10.90;99.90
14735;DHT22;7458;49.002;8.472;2023-04-20T16:16:32;11.00;99.90
14735;DHT22;7458;49.002;8.472;2023-04-20T16:21:24;10.70;99.90
14735;DHT22;7458;49.002;8.472;2023-04-20T16:23:54;11.10;99.90
14735;DHT22;7458;49.002;8.472;2023-04-20T16:26:21;11.20;99.90
14735;DHT22;7458;49.002;8.472;2023-04-20T16:28:49;11.10;99.90
14735;DHT22;7458;49.002;8.472;2023-04-20T16:31:15;11.20;99.90
14735;DHT22;7458;49.002;8.472;2023-04-20T16:33:41;11.00;99.90
14735;DHT22;7458;49.002;8.472;2023-04-20T16:41:00;11.20;99.90
14735;DHT22;7458;49.002;8.472;2023-04-20T16:43:25;10.40;99.90
14735;DHT22;7458;49.002;8.472;2023-04-20T16:48:17;10.60;99.90
14735;DHT22;7458;49.002;8.472;2023-04-20T17:00:29;10.80;99.90
14735;DHT22;7458;49.002;8.472;2023-04-20T17:02:56;10.90;99.90
14735;DHT22;7458;49.002;8.472;2023-04-20T17:07:49;11.20;99.90
14735;DHT22;7458;49.002;8.472;2023-04-20T17:10:15;11.10;99.90
14735;DHT22;7458;49.002;8.472;2023-04-20T17:12:42;11.60;99.90
14735;DHT22;7458;49.002;8.472;2023-04-20T17:17:37;10.90;99.90
14735;DHT22;7458;49.002;8.472;2023-04-20T17:20:04;11.20;99.90
14735;DHT22;7458;49.002;8.472;2023-04-20T17:27:24;10.60;99.90
14735;DHT22;7458;49.002;8.472;2023-04-20T17:29:50;10.70;99.90
14735;DHT22;7458;49.002;8.472;2023-04-20T17:32:16;11.00;99.90
14735;DHT22;7458;49.002;8.472;2023-04-20T17:34:42;10.70;99.90
14735;DHT22;7458;49.002;8.472;2023-04-20T17:37:13;11.10;99.90
14735;DHT22;7458;49.002;8.472;2023-04-20T17:39:40;10.30;99.90
14735;DHT22;7458;49.002;8.472;2023-04-20T17:42:05;10.20;99.90
14735;DHT22;7458;49.002;8.472;2023-04-20T17:44:31;10.70;99.90
14735;DHT22;7458;49.002;8.472;2023-04-20T17:51:52;10.50;99.90
14735;DHT22;7458;49.002;8.472;2023-04-20T17:54:18;10.50;99.90
14735;DHT22;7458;49.002;8.472;2023-04-20T18:01:36;10.70;99.90
14735;DHT22;7458;49.002;8.472;2023-04-20T18:04:03;10.20;99.90
14735;DHT22;7458;49.002;8.472;2023-04-20T18:06:29;10.20;99.90
14735;DHT22;7458;49.002;8.472;2023-04-20T18:11:24;10.30;99.90
14735;DHT22;7458;49.002;8.472;2023-04-20T18:16:16;10.50;99.90
14735;DHT22;7458;49.002;8.472;2023-04-20T18:18:43;10.70;99.90
14735;DHT22;7458;49.002;8.472;2023-04-20T18:21:09;10.50;99.90
14735;DHT22;7458;49.002;8.472;2023-04-20T18:26:05;10.30;99.90
14735;DHT22;7458;49.002;8.472;2023-04-20T18:28:31;9.90;99.90
14735;DHT22;7458;49.002;8.472;2023-04-20T18:30:57;10.40;99.90
14735;DHT22;7458;49.002;8.472;2023-04-20T18:33:25;10.90;99.90
14735;DHT22;7458;49.002;8.472;2023-04-20T18:40:43;10.50;99.90
14735;DHT22;7458;49.002;8.472;2023-04-20T18:43:09;10.90;99.90
14735;DHT22;7458;49.002;8.472;2023-04-20T18:45:35;10.60;99.90
14735;DHT22;7458;49.002;8.472;2023-04-20T18:50:26;10.30;99.90
14735;DHT22;7458;49.002;8.472;2023-04-20T19:00:11;10.30;99.90
14735;DHT22;7458;49.002;8.472;2023-04-20T19:05:03;10.50;99.90
14735;DHT22;7458;49.002;8.472;2023-04-20T19:07:29;10.40;99.90
14735;DHT22;7458;49.002;8.472;2023-04-20T19:09:55;10.10;99.90
14735;DHT22;7458;49.002;8.472;2023-04-20T19:12:21;10.20;99.90
14735;DHT22;7458;49.002;8.472;2023-04-20T19:14:46;10.30;99.90
14735;DHT22;7458;49.002;8.472;2023-04-20T19:19:40;10.20;99.90
14735;DHT22;7458;49.002;8.472;2023-04-20T19:22:05;10.10;99.90
14735;DHT22;7458;49.002;8.472;2023-04-20T19:31:50;10.30;99.90
14735;DHT22;7458;49.002;8.472;2023-04-20T19:34:16;10.50;99.90
14735;DHT22;7458;49.002;8.472;2023-04-20T19:49:00;10.20;99.90
14735;DHT22;7458;49.002;8.472;2023-04-20T19:51:26;9.40;99.90
14735;DHT22;7458;49.002;8.472;2023-04-20T20:01:11;9.60;99.90
14735;DHT22;7458;49.002;8.472;2023-04-20T20:06:03;9.40;99.90
14735;DHT22;7458;49.002;8.472;2023-04-20T20:08:29;9.30;99.90
14735;DHT22;7458;49.002;8.472;2023-04-20T20:10:55;9.50;99.90
14735;DHT22;7458;49.002;8.472;2023-04-20T20:15:47;9.60;99.90
14735;DHT22;7458;49.002;8.472;2023-04-20T20:25:32;9.60;99.90
14735;DHT22;7458;49.002;8.472;2023-04-20T20:27:58;10.10;99.90
14735;DHT22;7458;49.002;8.472;2023-04-20T20:35:16;9.40;99.90
14735;DHT22;7458;49.002;8.472;2023-04-20T20:40:09;9.40;99.90
14735;DHT22;7458;49.002;8.472;2023-04-20T20:42:37;9.20;99.90
14735;DHT22;7458;49.002;8.472;2023-04-20T20:45:05;9.50;99.90
14735;DHT22;7458;49.002;8.472;2023-04-20T20:47:35;9.10;99.90
14735;DHT22;7458;49.002;8.472;2023-04-20T20:54:53;9.00;99.90
14735;DHT22;7458;49.002;8.472;2023-04-20T20:59:45;9.20;99.90
14735;DHT22;7458;49.002;8.472;2023-04-20T21:09:29;8.90;99.90
14735;DHT22;7458;49.002;8.472;2023-04-20T21:11:55;9.10;99.90
14735;DHT22;7458;49.002;8.472;2023-04-20T21:16:48;8.40;99.90
14735;DHT22;7458;49.002;8.472;2023-04-20T21:19:13;8.80;99.90
14735;DHT22;7458;49.002;8.472;2023-04-20T21:21:39;8.20;99.90
14735;DHT22;7458;49.002;8.472;2023-04-20T21:24:05;8.20;99.90
14735;DHT22;7458;49.002;8.472;2023-04-20T21:29:00;8.20;99.90
14735;DHT22;7458;49.002;8.472;2023-04-20T21:31:27;8.10;99.90
14735;DHT22;7458;49.002;8.472;2023-04-20T21:33:53;8.50;99.90
14735;DHT22;7458;49.002;8.472;2023-04-20T21:41:11;8.60;99.90
14735;DHT22;7458;49.002;8.472;2023-04-20T21:46:03;7.90;99.90
14735;DHT22;7458;49.002;8.472;2023-04-20T21:48:29;8.50;99.90
14735;DHT22;7458;49.002;8.472;2023-04-20T21:50:55;8.30;99.90
14735;DHT22;7458;49.002;8.472;2023-04-20T21:55:46;8.20;99.90
14735;DHT22;7458;49.002;8.472;2023-04-20T21:58:12;8.20;99.90
14735;DHT22;7458;49.002;8.472;2023-04-20T22:10:24;7.80;99.90
14735;DHT22;7458;49.002;8.472;2023-04-20T22:12:50;7.80;99.90
14735;DHT22;7458;49.002;8.472;2023-04-20T22:17:43;7.90;99.90
14735;DHT22;7458;49.002;8.472;2023-04-20T22:20:13;7.90;99.90
14735;DHT22;7458;49.002;8.472;2023-04-20T22:25:07;7.70;99.90
14735;DHT22;7458;49.002;8.472;2023-04-20T22:27:34;7.40;99.90